sensor_id;sensor_type;location;lat;lon;timestamp;P1;durP1;ratioP1;P2;durP2;ratioP2
3081;SDS011;1551;51.046;7.010;2022-10-22T00:02:46;6.32;;;2.90;;
3081;SDS011;1551;51.046;7.010;2022-10-22T00:05:35;6.85;;;3.30;;
3081;SDS011;1551;51.046;7.010;2022-10-22T00:08:24;7.57;;;3.80;;
3081;SDS011;1551;51.046;7.010;2022-10-22T00:11:14;6.50;;;4.17;;
3081;SDS011;1551;51.046;7.010;2022-10-22T00:14:05;6.35;;;3.33;;
3081;SDS011;1551;51.046;7.010;2022-10-22T00:16:54;5.25;;;3.10;;
3081;SDS011;1551;51.046;7.010;2022-10-22T00:19:43;8.50;;;3.75;;
3081;SDS011;1551;51.046;7.010;2022-10-22T00:22:32;4.80;;;2.88;;
3081;SDS011;1551;51.046;7.010;2022-10-22T00:25:21;5.40;;;2.92;;
3081;SDS011;1551;51.046;7.010;2022-10-22T00:28:10;9.63;;;3.38;;
3081;SDS011;1551;51.046;7.010;2022-10-22T00:30:59;4.85;;;2.90;;
3081;SDS011;1551;51.046;7.010;2022-10-22T00:33:49;6.18;;;2.80;;
3081;SDS011;1551;51.046;7.010;2022-10-22T00:36:38;8.20;;;3.35;;
3081;SDS011;1551;51.046;7.010;2022-10-22T00:39:27;6.78;;;3.42;;
3081;SDS011;1551;51.046;7.010;2022-10-22T00:42:19;3.63;;;2.72;;
3081;SDS011;1551;51.046;7.010;2022-10-22T00:51:02;5.85;;;3.03;;
3081;SDS011;1551;51.046;7.010;2022-10-22T00:53:55;4.60;;;3.20;;
3081;SDS011;1551;51.046;7.010;2022-10-22T00:56:48;4.07;;;2.88;;
3081;SDS011;1551;51.046;7.010;2022-10-22T00:59:37;6.47;;;2.90;;
3081;SDS011;1551;51.046;7.010;2022-10-22T01:02:27;5.72;;;3.05;;
3081;SDS011;1551;51.046;7.010;2022-10-22T01:05:16;4.10;;;2.78;;
3081;SDS011;1551;51.046;7.010;2022-10-22T01:08:08;7.25;;;3.00;;
3081;SDS011;1551;51.046;7.010;2022-10-22T01:11:18;5.40;;;2.70;;
3081;SDS011;1551;51.046;7.010;2022-10-22T01:17:54;4.10;;;2.80;;
3081;SDS011;1551;51.046;7.010;2022-10-22T01:20:52;4.63;;;2.60;;
3081;SDS011;1551;51.046;7.010;2022-10-22T01:27:05;4.38;;;2.70;;
3081;SDS011;1551;51.046;7.010;2022-10-22T01:30:00;5.07;;;2.92;;
3081;SDS011;1551;51.046;7.010;2022-10-22T01:33:00;7.60;;;4.05;;
3081;SDS011;1551;51.046;7.010;2022-10-22T01:35:52;6.38;;;3.88;;
3081;SDS011;1551;51.046;7.010;2022-10-22T01:38:43;5.78;;;3.78;;
3081;SDS011;1551;51.046;7.010;2022-10-22T01:41:33;7.20;;;4.25;;
3081;SDS011;1551;51.046;7.010;2022-10-22T01:44:24;7.72;;;5.13;;
3081;SDS011;1551;51.046;7.010;2022-10-22T02:05:16;4.60;;;3.22;;
3081;SDS011;1551;51.046;7.010;2022-10-22T02:08:16;6.00;;;3.10;;
3081;SDS011;1551;51.046;7.010;2022-10-22T02:11:08;11.73;;;3.42;;
3081;SDS011;1551;51.046;7.010;2022-10-22T02:14:01;4.90;;;3.22;;
3081;SDS011;1551;51.046;7.010;2022-10-22T02:16:52;4.47;;;3.58;;
3081;SDS011;1551;51.046;7.010;2022-10-22T02:19:46;4.40;;;2.90;;
3081;SDS011;1551;51.046;7.010;2022-10-22T02:22:43;3.90;;;2.97;;
3081;SDS011;1551;51.046;7.010;2022-10-22T02:25:34;5.43;;;3.20;;
3081;SDS011;1551;51.046;7.010;2022-10-22T02:31:23;4.38;;;2.80;;
3081;SDS011;1551;51.046;7.010;2022-10-22T02:34:17;5.68;;;2.90;;
3081;SDS011;1551;51.046;7.010;2022-10-22T02:37:09;4.78;;;3.35;;
3081;SDS011;1551;51.046;7.010;2022-10-22T02:39:59;5.65;;;3.40;;
3081;SDS011;1551;51.046;7.010;2022-10-22T02:42:48;4.82;;;3.03;;
3081;SDS011;1551;51.046;7.010;2022-10-22T02:45:38;5.40;;;3.30;;
3081;SDS011;1551;51.046;7.010;2022-10-22T02:48:27;5.38;;;3.20;;
3081;SDS011;1551;51.046;7.010;2022-10-22T02:51:16;5.38;;;3.13;;
3081;SDS011;1551;51.046;7.010;2022-10-22T02:54:05;5.72;;;3.20;;
3081;SDS011;1551;51.046;7.010;2022-10-22T02:56:54;6.82;;;3.17;;
3081;SDS011;1551;51.046;7.010;2022-10-22T02:59:43;6.57;;;3.47;;
3081;SDS011;1551;51.046;7.010;2022-10-22T03:02:32;9.07;;;3.30;;
3081;SDS011;1551;51.046;7.010;2022-10-22T03:05:21;4.90;;;2.95;;
3081;SDS011;1551;51.046;7.010;2022-10-22T03:08:10;5.40;;;3.30;;
3081;SDS011;1551;51.046;7.010;2022-10-22T03:10:59;4.90;;;3.35;;
3081;SDS011;1551;51.046;7.010;2022-10-22T03:13:47;3.85;;;3.10;;
3081;SDS011;1551;51.046;7.010;2022-10-22T03:16:36;6.30;;;3.40;;
3081;SDS011;1551;51.046;7.010;2022-10-22T03:19:25;5.18;;;3.33;;
3081;SDS011;1551;51.046;7.010;2022-10-22T03:22:16;5.27;;;3.57;;
3081;SDS011;1551;51.046;7.010;2022-10-22T03:25:16;5.68;;;3.70;;
3081;SDS011;1551;51.046;7.010;2022-10-22T03:28:08;5.40;;;3.00;;
3081;SDS011;1551;51.046;7.010;2022-10-22T03:30:59;4.50;;;3.30;;
3081;SDS011;1551;51.046;7.010;2022-10-22T03:33:47;6.38;;;4.10;;
3081;SDS011;1551;51.046;7.010;2022-10-22T03:36:36;5.70;;;3.70;;
3081;SDS011;1551;51.046;7.010;2022-10-22T03:39:27;6.00;;;3.20;;
3081;SDS011;1551;51.046;7.010;2022-10-22T03:42:19;4.68;;;3.83;;
3081;SDS011;1551;51.046;7.010;2022-10-22T03:45:09;6.20;;;3.40;;
3081;SDS011;1551;51.046;7.010;2022-10-22T03:47:58;6.63;;;3.22;;
3081;SDS011;1551;51.046;7.010;2022-10-22T03:50:47;6.80;;;3.70;;
3081;SDS011;1551;51.046;7.010;2022-10-22T03:53:37;5.90;;;3.50;;
3081;SDS011;1551;51.046;7.010;2022-10-22T03:56:26;5.13;;;3.35;;
3081;SDS011;1551;51.046;7.010;2022-10-22T03:59:15;5.38;;;3.17;;
3081;SDS011;1551;51.046;7.010;2022-10-22T04:02:04;4.18;;;3.40;;
3081;SDS011;1551;51.046;7.010;2022-10-22T04:04:54;6.35;;;3.50;;
3081;SDS011;1551;51.046;7.010;2022-10-22T04:07:42;5.50;;;3.40;;
3081;SDS011;1551;51.046;7.010;2022-10-22T04:10:32;6.30;;;4.20;;
3081;SDS011;1551;51.046;7.010;2022-10-22T04:13:21;4.90;;;3.15;;
3081;SDS011;1551;51.046;7.010;2022-10-22T04:16:17;6.35;;;4.35;;
3081;SDS011;1551;51.046;7.010;2022-10-22T04:19:07;4.83;;;4.10;;
3081;SDS011;1551;51.046;7.010;2022-10-22T04:21:57;5.43;;;3.90;;
3081;SDS011;1551;51.046;7.010;2022-10-22T04:24:47;4.93;;;3.90;;
3081;SDS011;1551;51.046;7.010;2022-10-22T04:27:36;6.28;;;3.67;;
3081;SDS011;1551;51.046;7.010;2022-10-22T04:30:26;6.20;;;4.15;;
3081;SDS011;1551;51.046;7.010;2022-10-22T04:33:15;7.38;;;3.90;;
3081;SDS011;1551;51.046;7.010;2022-10-22T04:39:05;6.82;;;3.65;;
3081;SDS011;1551;51.046;7.010;2022-10-22T04:41:54;5.18;;;3.47;;
3081;SDS011;1551;51.046;7.010;2022-10-22T04:44:44;6.10;;;4.30;;
3081;SDS011;1551;51.046;7.010;2022-10-22T04:47:33;3.80;;;3.38;;
3081;SDS011;1551;51.046;7.010;2022-10-22T04:50:22;6.13;;;3.80;;
3081;SDS011;1551;51.046;7.010;2022-10-22T04:53:11;10.07;;;7.37;;
3081;SDS011;1551;51.046;7.010;2022-10-22T04:56:10;16.27;;;13.30;;
3081;SDS011;1551;51.046;7.010;2022-10-22T04:59:04;16.52;;;14.68;;
3081;SDS011;1551;51.046;7.010;2022-10-22T05:01:55;6.82;;;5.10;;
3081;SDS011;1551;51.046;7.010;2022-10-22T05:04:43;7.28;;;4.30;;
3081;SDS011;1551;51.046;7.010;2022-10-22T05:07:32;6.50;;;4.20;;
3081;SDS011;1551;51.046;7.010;2022-10-22T05:10:22;6.18;;;3.80;;
3081;SDS011;1551;51.046;7.010;2022-10-22T05:13:10;6.35;;;4.10;;
3081;SDS011;1551;51.046;7.010;2022-10-22T05:16:00;8.40;;;5.82;;
3081;SDS011;1551;51.046;7.010;2022-10-22T05:18:49;5.63;;;4.10;;
3081;SDS011;1551;51.046;7.010;2022-10-22T05:21:38;11.52;;;5.03;;
3081;SDS011;1551;51.046;7.010;2022-10-22T05:24:28;5.78;;;3.42;;
3081;SDS011;1551;51.046;7.010;2022-10-22T05:27:18;4.87;;;3.80;;
3081;SDS011;1551;51.046;7.010;2022-10-22T05:30:07;6.32;;;4.22;;
3081;SDS011;1551;51.046;7.010;2022-10-22T05:32:56;6.07;;;3.93;;
3081;SDS011;1551;51.046;7.010;2022-10-22T05:35:45;5.57;;;4.20;;
3081;SDS011;1551;51.046;7.010;2022-10-22T05:38:34;6.03;;;4.57;;
3081;SDS011;1551;51.046;7.010;2022-10-22T05:41:24;6.40;;;3.70;;
3081;SDS011;1551;51.046;7.010;2022-10-22T05:44:14;6.88;;;4.47;;
3081;SDS011;1551;51.046;7.010;2022-10-22T05:47:03;7.90;;;5.10;;
3081;SDS011;1551;51.046;7.010;2022-10-22T05:49:52;7.27;;;6.27;;
3081;SDS011;1551;51.046;7.010;2022-10-22T05:52:40;5.00;;;3.97;;
3081;SDS011;1551;51.046;7.010;2022-10-22T05:55:32;6.82;;;4.20;;
3081;SDS011;1551;51.046;7.010;2022-10-22T05:58:24;5.10;;;4.40;;
3081;SDS011;1551;51.046;7.010;2022-10-22T06:01:15;4.57;;;4.03;;
3081;SDS011;1551;51.046;7.010;2022-10-22T06:04:07;5.38;;;4.50;;
3081;SDS011;1551;51.046;7.010;2022-10-22T06:06:59;9.40;;;4.60;;
3081;SDS011;1551;51.046;7.010;2022-10-22T06:09:48;6.50;;;4.50;;
3081;SDS011;1551;51.046;7.010;2022-10-22T06:12:37;7.22;;;4.38;;
3081;SDS011;1551;51.046;7.010;2022-10-22T06:15:26;5.10;;;4.25;;
3081;SDS011;1551;51.046;7.010;2022-10-22T06:18:15;4.90;;;4.40;;
3081;SDS011;1551;51.046;7.010;2022-10-22T06:21:05;7.05;;;4.15;;
3081;SDS011;1551;51.046;7.010;2022-10-22T06:23:56;8.53;;;4.70;;
3081;SDS011;1551;51.046;7.010;2022-10-22T06:26:50;6.47;;;4.72;;
3081;SDS011;1551;51.046;7.010;2022-10-22T06:29:39;8.68;;;6.18;;
3081;SDS011;1551;51.046;7.010;2022-10-22T06:32:29;12.15;;;5.32;;
3081;SDS011;1551;51.046;7.010;2022-10-22T06:35:18;7.20;;;5.63;;
3081;SDS011;1551;51.046;7.010;2022-10-22T06:38:07;6.50;;;4.60;;
3081;SDS011;1551;51.046;7.010;2022-10-22T06:41:00;8.98;;;5.00;;
3081;SDS011;1551;51.046;7.010;2022-10-22T06:43:51;6.13;;;4.32;;
3081;SDS011;1551;51.046;7.010;2022-10-22T06:46:41;7.97;;;4.00;;
3081;SDS011;1551;51.046;7.010;2022-10-22T06:49:30;6.57;;;4.47;;
3081;SDS011;1551;51.046;7.010;2022-10-22T06:52:19;4.90;;;4.00;;
3081;SDS011;1551;51.046;7.010;2022-10-22T06:55:08;6.03;;;4.60;;
3081;SDS011;1551;51.046;7.010;2022-10-22T06:57:57;6.20;;;4.90;;
3081;SDS011;1551;51.046;7.010;2022-10-22T07:00:46;7.30;;;4.23;;
3081;SDS011;1551;51.046;7.010;2022-10-22T07:03:36;6.68;;;4.15;;
3081;SDS011;1551;51.046;7.010;2022-10-22T07:06:25;4.95;;;4.05;;
3081;SDS011;1551;51.046;7.010;2022-10-22T07:09:16;8.05;;;3.92;;
3081;SDS011;1551;51.046;7.010;2022-10-22T07:12:05;5.10;;;4.28;;
3081;SDS011;1551;51.046;7.010;2022-10-22T07:14:54;6.32;;;3.83;;
3081;SDS011;1551;51.046;7.010;2022-10-22T07:17:43;6.32;;;4.00;;
3081;SDS011;1551;51.046;7.010;2022-10-22T07:20:32;7.22;;;3.83;;
3081;SDS011;1551;51.046;7.010;2022-10-22T07:23:21;6.35;;;3.83;;
3081;SDS011;1551;51.046;7.010;2022-10-22T07:26:10;6.40;;;4.10;;
3081;SDS011;1551;51.046;7.010;2022-10-22T07:29:01;5.50;;;4.30;;
3081;SDS011;1551;51.046;7.010;2022-10-22T07:31:50;4.60;;;3.90;;
3081;SDS011;1551;51.046;7.010;2022-10-22T07:34:39;7.50;;;3.90;;
3081;SDS011;1551;51.046;7.010;2022-10-22T07:37:28;4.32;;;3.47;;
3081;SDS011;1551;51.046;7.010;2022-10-22T07:40:17;6.47;;;4.00;;
3081;SDS011;1551;51.046;7.010;2022-10-22T07:43:06;4.33;;;3.37;;
3081;SDS011;1551;51.046;7.010;2022-10-22T07:45:55;6.37;;;3.17;;
3081;SDS011;1551;51.046;7.010;2022-10-22T07:48:44;5.85;;;3.38;;
3081;SDS011;1551;51.046;7.010;2022-10-22T07:51:33;10.55;;;3.85;;
3081;SDS011;1551;51.046;7.010;2022-10-22T07:54:22;6.43;;;3.67;;
3081;SDS011;1551;51.046;7.010;2022-10-22T07:57:12;5.32;;;3.05;;
3081;SDS011;1551;51.046;7.010;2022-10-22T08:00:03;7.03;;;3.33;;
3081;SDS011;1551;51.046;7.010;2022-10-22T08:03:00;5.33;;;3.60;;
3081;SDS011;1551;51.046;7.010;2022-10-22T08:05:50;5.60;;;3.35;;
3081;SDS011;1551;51.046;7.010;2022-10-22T08:08:40;6.05;;;3.90;;
3081;SDS011;1551;51.046;7.010;2022-10-22T08:11:29;6.25;;;3.53;;
3081;SDS011;1551;51.046;7.010;2022-10-22T08:14:20;4.80;;;3.40;;
3081;SDS011;1551;51.046;7.010;2022-10-22T08:17:09;4.32;;;3.30;;
3081;SDS011;1551;51.046;7.010;2022-10-22T08:19:58;6.35;;;3.40;;
3081;SDS011;1551;51.046;7.010;2022-10-22T08:22:47;6.38;;;3.65;;
3081;SDS011;1551;51.046;7.010;2022-10-22T08:25:36;7.63;;;3.60;;
3081;SDS011;1551;51.046;7.010;2022-10-22T08:28:25;4.90;;;3.30;;
3081;SDS011;1551;51.046;7.010;2022-10-22T08:31:16;10.10;;;3.60;;
3081;SDS011;1551;51.046;7.010;2022-10-22T08:34:05;6.78;;;3.72;;
3081;SDS011;1551;51.046;7.010;2022-10-22T08:36:55;5.60;;;3.10;;
3081;SDS011;1551;51.046;7.010;2022-10-22T08:39:44;5.97;;;3.58;;
3081;SDS011;1551;51.046;7.010;2022-10-22T08:48:52;5.80;;;3.58;;
3081;SDS011;1551;51.046;7.010;2022-10-22T08:51:45;11.10;;;3.50;;
3081;SDS011;1551;51.046;7.010;2022-10-22T08:54:50;6.00;;;3.20;;
3081;SDS011;1551;51.046;7.010;2022-10-22T08:57:45;4.67;;;2.70;;
3081;SDS011;1551;51.046;7.010;2022-10-22T09:00:37;3.83;;;2.13;;
3081;SDS011;1551;51.046;7.010;2022-10-22T09:03:40;5.80;;;2.60;;
3081;SDS011;1551;51.046;7.010;2022-10-22T09:06:36;3.40;;;2.40;;
3081;SDS011;1551;51.046;7.010;2022-10-22T09:09:32;6.55;;;2.90;;
3081;SDS011;1551;51.046;7.010;2022-10-22T09:12:26;4.65;;;2.58;;
3081;SDS011;1551;51.046;7.010;2022-10-22T09:15:17;6.23;;;3.33;;
3081;SDS011;1551;51.046;7.010;2022-10-22T09:21:33;4.55;;;2.90;;
3081;SDS011;1551;51.046;7.010;2022-10-22T09:24:46;7.07;;;2.50;;
3081;SDS011;1551;51.046;7.010;2022-10-22T09:27:37;4.70;;;2.50;;
3081;SDS011;1551;51.046;7.010;2022-10-22T09:30:27;3.10;;;2.53;;
3081;SDS011;1551;51.046;7.010;2022-10-22T09:33:22;6.85;;;2.60;;
3081;SDS011;1551;51.046;7.010;2022-10-22T09:36:17;4.70;;;2.10;;
3081;SDS011;1551;51.046;7.010;2022-10-22T09:42:27;3.38;;;2.10;;
3081;SDS011;1551;51.046;7.010;2022-10-22T09:45:23;6.53;;;2.38;;
3081;SDS011;1551;51.046;7.010;2022-10-22T09:53:55;4.07;;;2.00;;
3081;SDS011;1551;51.046;7.010;2022-10-22T09:56:56;6.20;;;1.90;;
3081;SDS011;1551;51.046;7.010;2022-10-22T09:59:53;4.88;;;2.05;;
3081;SDS011;1551;51.046;7.010;2022-10-22T10:02:43;4.88;;;2.00;;
3081;SDS011;1551;51.046;7.010;2022-10-22T10:05:33;4.50;;;1.70;;
3081;SDS011;1551;51.046;7.010;2022-10-22T10:08:25;6.30;;;2.07;;
3081;SDS011;1551;51.046;7.010;2022-10-22T10:11:31;4.78;;;2.15;;
3081;SDS011;1551;51.046;7.010;2022-10-22T10:15:07;7.22;;;2.10;;
3081;SDS011;1551;51.046;7.010;2022-10-22T10:18:11;4.55;;;2.00;;
3081;SDS011;1551;51.046;7.010;2022-10-22T10:21:20;5.28;;;2.00;;
3081;SDS011;1551;51.046;7.010;2022-10-22T10:27:43;5.15;;;1.80;;
3081;SDS011;1551;51.046;7.010;2022-10-22T10:30:45;4.60;;;1.60;;
3081;SDS011;1551;51.046;7.010;2022-10-22T10:46:37;5.32;;;1.60;;
3081;SDS011;1551;51.046;7.010;2022-10-22T10:49:37;5.55;;;2.97;;
3081;SDS011;1551;51.046;7.010;2022-10-22T10:52:38;3.90;;;1.50;;
3081;SDS011;1551;51.046;7.010;2022-10-22T10:55:48;4.50;;;2.15;;
3081;SDS011;1551;51.046;7.010;2022-10-22T11:07:51;3.85;;;3.20;;
3081;SDS011;1551;51.046;7.010;2022-10-22T11:14:29;6.03;;;3.88;;
3081;SDS011;1551;51.046;7.010;2022-10-22T11:17:27;5.70;;;2.03;;
3081;SDS011;1551;51.046;7.010;2022-10-22T11:20:26;4.22;;;2.45;;
3081;SDS011;1551;51.046;7.010;2022-10-22T11:23:38;5.40;;;3.25;;
3081;SDS011;1551;51.046;7.010;2022-10-22T11:26:49;7.28;;;1.88;;
3081;SDS011;1551;51.046;7.010;2022-10-22T11:29:43;6.30;;;2.27;;
3081;SDS011;1551;51.046;7.010;2022-10-22T11:32:38;5.72;;;3.58;;
3081;SDS011;1551;51.046;7.010;2022-10-22T11:35:36;6.90;;;3.30;;
3081;SDS011;1551;51.046;7.010;2022-10-22T11:38:29;6.75;;;2.30;;
3081;SDS011;1551;51.046;7.010;2022-10-22T11:41:23;4.50;;;2.47;;
3081;SDS011;1551;51.046;7.010;2022-10-22T11:44:24;7.00;;;4.25;;
3081;SDS011;1551;51.046;7.010;2022-10-22T11:47:19;3.25;;;1.10;;
3081;SDS011;1551;51.046;7.010;2022-10-22T11:50:19;3.80;;;1.45;;
3081;SDS011;1551;51.046;7.010;2022-10-22T11:56:03;13.10;;;5.93;;
3081;SDS011;1551;51.046;7.010;2022-10-22T11:59:29;3.97;;;1.90;;
3081;SDS011;1551;51.046;7.010;2022-10-22T12:08:15;4.60;;;1.50;;
3081;SDS011;1551;51.046;7.010;2022-10-22T12:14:20;9.30;;;4.00;;
3081;SDS011;1551;51.046;7.010;2022-10-22T12:17:16;7.13;;;2.95;;
3081;SDS011;1551;51.046;7.010;2022-10-22T12:20:10;3.88;;;1.30;;
3081;SDS011;1551;51.046;7.010;2022-10-22T12:23:00;4.68;;;1.30;;
3081;SDS011;1551;51.046;7.010;2022-10-22T12:25:50;2.40;;;1.00;;
3081;SDS011;1551;51.046;7.010;2022-10-22T12:28:39;4.57;;;1.50;;
3081;SDS011;1551;51.046;7.010;2022-10-22T12:31:28;3.05;;;1.20;;
3081;SDS011;1551;51.046;7.010;2022-10-22T12:34:23;4.27;;;1.60;;
3081;SDS011;1551;51.046;7.010;2022-10-22T12:37:13;3.42;;;1.20;;
3081;SDS011;1551;51.046;7.010;2022-10-22T12:40:17;3.97;;;1.20;;
3081;SDS011;1551;51.046;7.010;2022-10-22T12:43:15;4.70;;;1.25;;
3081;SDS011;1551;51.046;7.010;2022-10-22T12:46:13;2.40;;;1.00;;
3081;SDS011;1551;51.046;7.010;2022-10-22T12:49:10;2.40;;;1.00;;
3081;SDS011;1551;51.046;7.010;2022-10-22T12:52:05;4.00;;;1.17;;
3081;SDS011;1551;51.046;7.010;2022-10-22T12:55:00;4.57;;;1.10;;
3081;SDS011;1551;51.046;7.010;2022-10-22T12:57:55;3.30;;;1.10;;
3081;SDS011;1551;51.046;7.010;2022-10-22T13:00:44;2.15;;;0.82;;
3081;SDS011;1551;51.046;7.010;2022-10-22T13:03:36;3.17;;;0.98;;
3081;SDS011;1551;51.046;7.010;2022-10-22T13:06:29;3.20;;;0.90;;
3081;SDS011;1551;51.046;7.010;2022-10-22T13:09:23;4.85;;;1.30;;
3081;SDS011;1551;51.046;7.010;2022-10-22T13:12:13;2.92;;;1.00;;
3081;SDS011;1551;51.046;7.010;2022-10-22T13:15:31;2.63;;;1.02;;
3081;SDS011;1551;51.046;7.010;2022-10-22T13:18:23;4.43;;;1.20;;
3081;SDS011;1551;51.046;7.010;2022-10-22T13:21:21;1.85;;;0.80;;
3081;SDS011;1551;51.046;7.010;2022-10-22T13:24:21;2.15;;;0.80;;
3081;SDS011;1551;51.046;7.010;2022-10-22T13:27:11;2.88;;;1.00;;
3081;SDS011;1551;51.046;7.010;2022-10-22T13:30:08;2.30;;;0.80;;
3081;SDS011;1551;51.046;7.010;2022-10-22T13:33:39;3.30;;;1.00;;
3081;SDS011;1551;51.046;7.010;2022-10-22T13:36:25;4.50;;;0.90;;
3081;SDS011;1551;51.046;7.010;2022-10-22T13:39:17;3.10;;;0.80;;
3081;SDS011;1551;51.046;7.010;2022-10-22T13:42:11;4.20;;;1.23;;
3081;SDS011;1551;51.046;7.010;2022-10-22T13:45:00;2.80;;;1.10;;
3081;SDS011;1551;51.046;7.010;2022-10-22T13:47:50;3.03;;;1.10;;
3081;SDS011;1551;51.046;7.010;2022-10-22T13:50:41;3.47;;;1.27;;
3081;SDS011;1551;51.046;7.010;2022-10-22T13:53:30;3.72;;;1.23;;
3081;SDS011;1551;51.046;7.010;2022-10-22T13:56:20;3.63;;;0.85;;
3081;SDS011;1551;51.046;7.010;2022-10-22T13:59:09;1.75;;;0.90;;
3081;SDS011;1551;51.046;7.010;2022-10-22T14:01:59;3.70;;;1.20;;
3081;SDS011;1551;51.046;7.010;2022-10-22T14:04:53;3.33;;;1.60;;
3081;SDS011;1551;51.046;7.010;2022-10-22T14:07:43;4.15;;;1.20;;
3081;SDS011;1551;51.046;7.010;2022-10-22T14:10:32;2.30;;;0.90;;
3081;SDS011;1551;51.046;7.010;2022-10-22T14:13:21;2.05;;;0.82;;
3081;SDS011;1551;51.046;7.010;2022-10-22T14:16:15;3.30;;;1.00;;
3081;SDS011;1551;51.046;7.010;2022-10-22T14:19:09;2.55;;;0.88;;
3081;SDS011;1551;51.046;7.010;2022-10-22T14:22:04;3.55;;;1.42;;
3081;SDS011;1551;51.046;7.010;2022-10-22T14:24:53;3.10;;;1.30;;
3081;SDS011;1551;51.046;7.010;2022-10-22T14:27:43;3.17;;;1.00;;
3081;SDS011;1551;51.046;7.010;2022-10-22T14:30:32;4.10;;;1.08;;
3081;SDS011;1551;51.046;7.010;2022-10-22T14:33:22;1.77;;;0.80;;
3081;SDS011;1551;51.046;7.010;2022-10-22T14:36:13;3.65;;;1.48;;
3081;SDS011;1551;51.046;7.010;2022-10-22T14:39:03;1.92;;;0.80;;
3081;SDS011;1551;51.046;7.010;2022-10-22T14:41:52;2.80;;;1.00;;
3081;SDS011;1551;51.046;7.010;2022-10-22T14:44:41;5.07;;;1.55;;
3081;SDS011;1551;51.046;7.010;2022-10-22T14:47:30;3.17;;;1.30;;
3081;SDS011;1551;51.046;7.010;2022-10-22T14:50:20;3.42;;;1.10;;
3081;SDS011;1551;51.046;7.010;2022-10-22T14:53:10;3.30;;;1.10;;
3081;SDS011;1551;51.046;7.010;2022-10-22T14:55:59;2.87;;;1.10;;
3081;SDS011;1551;51.046;7.010;2022-10-22T14:58:49;4.38;;;1.40;;
3081;SDS011;1551;51.046;7.010;2022-10-22T15:01:38;3.15;;;1.20;;
3081;SDS011;1551;51.046;7.010;2022-10-22T15:04:27;3.45;;;1.50;;
3081;SDS011;1551;51.046;7.010;2022-10-22T15:07:18;3.50;;;1.48;;
3081;SDS011;1551;51.046;7.010;2022-10-22T15:10:08;3.40;;;1.30;;
3081;SDS011;1551;51.046;7.010;2022-10-22T15:12:57;4.88;;;1.60;;
3081;SDS011;1551;51.046;7.010;2022-10-22T15:15:46;3.30;;;1.40;;
3081;SDS011;1551;51.046;7.010;2022-10-22T15:18:35;2.92;;;1.48;;
3081;SDS011;1551;51.046;7.010;2022-10-22T15:21:25;2.40;;;1.20;;
3081;SDS011;1551;51.046;7.010;2022-10-22T15:24:14;2.42;;;1.30;;
3081;SDS011;1551;51.046;7.010;2022-10-22T15:27:02;3.55;;;1.30;;
3081;SDS011;1551;51.046;7.010;2022-10-22T15:29:51;3.55;;;1.25;;
3081;SDS011;1551;51.046;7.010;2022-10-22T15:32:40;3.50;;;1.60;;
3081;SDS011;1551;51.046;7.010;2022-10-22T15:35:29;3.08;;;2.05;;
3081;SDS011;1551;51.046;7.010;2022-10-22T15:38:18;6.18;;;2.17;;
3081;SDS011;1551;51.046;7.010;2022-10-22T15:41:08;4.15;;;2.20;;
3081;SDS011;1551;51.046;7.010;2022-10-22T15:44:00;5.25;;;2.55;;
3081;SDS011;1551;51.046;7.010;2022-10-22T15:46:49;5.25;;;3.35;;
3081;SDS011;1551;51.046;7.010;2022-10-22T15:49:39;7.70;;;4.78;;
3081;SDS011;1551;51.046;7.010;2022-10-22T15:52:30;7.00;;;5.07;;
3081;SDS011;1551;51.046;7.010;2022-10-22T15:55:19;5.40;;;2.80;;
3081;SDS011;1551;51.046;7.010;2022-10-22T15:58:09;4.07;;;2.22;;
3081;SDS011;1551;51.046;7.010;2022-10-22T16:01:08;4.50;;;2.20;;
3081;SDS011;1551;51.046;7.010;2022-10-22T16:03:59;4.00;;;2.10;;
3081;SDS011;1551;51.046;7.010;2022-10-22T16:06:50;5.03;;;2.10;;
3081;SDS011;1551;51.046;7.010;2022-10-22T16:09:40;6.57;;;2.13;;
3081;SDS011;1551;51.046;7.010;2022-10-22T16:12:29;5.82;;;2.50;;
3081;SDS011;1551;51.046;7.010;2022-10-22T16:15:18;4.57;;;2.70;;
3081;SDS011;1551;51.046;7.010;2022-10-22T16:18:07;8.90;;;3.70;;
3081;SDS011;1551;51.046;7.010;2022-10-22T16:20:56;5.85;;;2.80;;
3081;SDS011;1551;51.046;7.010;2022-10-22T16:23:45;3.78;;;2.63;;
3081;SDS011;1551;51.046;7.010;2022-10-22T16:26:34;3.50;;;2.20;;
3081;SDS011;1551;51.046;7.010;2022-10-22T16:29:23;4.95;;;3.00;;
3081;SDS011;1551;51.046;7.010;2022-10-22T16:32:12;6.68;;;2.90;;
3081;SDS011;1551;51.046;7.010;2022-10-22T16:35:04;6.25;;;3.97;;
3081;SDS011;1551;51.046;7.010;2022-10-22T16:37:53;4.18;;;2.33;;
3081;SDS011;1551;51.046;7.010;2022-10-22T16:40:42;4.40;;;2.50;;
3081;SDS011;1551;51.046;7.010;2022-10-22T16:43:31;4.37;;;2.20;;
3081;SDS011;1551;51.046;7.010;2022-10-22T16:46:20;4.27;;;2.50;;
3081;SDS011;1551;51.046;7.010;2022-10-22T16:49:11;5.35;;;2.60;;
3081;SDS011;1551;51.046;7.010;2022-10-22T16:51:59;5.63;;;2.70;;
3081;SDS011;1551;51.046;7.010;2022-10-22T16:54:48;5.07;;;3.88;;
3081;SDS011;1551;51.046;7.010;2022-10-22T16:57:37;5.72;;;3.47;;
3081;SDS011;1551;51.046;7.010;2022-10-22T17:00:26;6.40;;;3.60;;
3081;SDS011;1551;51.046;7.010;2022-10-22T17:03:15;5.37;;;3.63;;
3081;SDS011;1551;51.046;7.010;2022-10-22T17:06:04;6.07;;;3.50;;
3081;SDS011;1551;51.046;7.010;2022-10-22T17:08:54;4.00;;;2.00;;
3081;SDS011;1551;51.046;7.010;2022-10-22T17:11:43;5.65;;;2.78;;
3081;SDS011;1551;51.046;7.010;2022-10-22T17:14:32;7.70;;;5.55;;
3081;SDS011;1551;51.046;7.010;2022-10-22T17:17:21;9.10;;;4.60;;
3081;SDS011;1551;51.046;7.010;2022-10-22T17:20:10;9.07;;;3.50;;
3081;SDS011;1551;51.046;7.010;2022-10-22T17:22:59;8.13;;;3.60;;
3081;SDS011;1551;51.046;7.010;2022-10-22T17:25:48;9.97;;;6.37;;
3081;SDS011;1551;51.046;7.010;2022-10-22T17:28:37;8.40;;;6.32;;
3081;SDS011;1551;51.046;7.010;2022-10-22T17:31:31;8.80;;;5.10;;
3081;SDS011;1551;51.046;7.010;2022-10-22T17:34:23;9.05;;;4.22;;
3081;SDS011;1551;51.046;7.010;2022-10-22T17:37:12;7.05;;;4.60;;
3081;SDS011;1551;51.046;7.010;2022-10-22T17:40:02;10.23;;;6.15;;
3081;SDS011;1551;51.046;7.010;2022-10-22T17:42:52;9.20;;;4.60;;
3081;SDS011;1551;51.046;7.010;2022-10-22T17:45:41;9.50;;;5.50;;
3081;SDS011;1551;51.046;7.010;2022-10-22T17:48:30;8.77;;;5.30;;
3081;SDS011;1551;51.046;7.010;2022-10-22T17:51:19;9.57;;;5.70;;
3081;SDS011;1551;51.046;7.010;2022-10-22T17:54:10;6.93;;;4.88;;
3081;SDS011;1551;51.046;7.010;2022-10-22T17:57:00;8.48;;;4.88;;
3081;SDS011;1551;51.046;7.010;2022-10-22T17:59:49;8.60;;;5.70;;
3081;SDS011;1551;51.046;7.010;2022-10-22T18:02:38;8.23;;;5.82;;
3081;SDS011;1551;51.046;7.010;2022-10-22T18:05:29;7.05;;;4.88;;
3081;SDS011;1551;51.046;7.010;2022-10-22T18:08:19;9.13;;;5.00;;
3081;SDS011;1551;51.046;7.010;2022-10-22T18:11:09;8.73;;;4.97;;
3081;SDS011;1551;51.046;7.010;2022-10-22T18:14:00;6.78;;;4.15;;
3081;SDS011;1551;51.046;7.010;2022-10-22T18:16:51;9.88;;;4.85;;
3081;SDS011;1551;51.046;7.010;2022-10-22T18:19:40;7.90;;;4.40;;
3081;SDS011;1551;51.046;7.010;2022-10-22T18:22:29;8.95;;;4.97;;
3081;SDS011;1551;51.046;7.010;2022-10-22T18:25:19;12.13;;;4.90;;
3081;SDS011;1551;51.046;7.010;2022-10-22T18:28:11;10.80;;;5.05;;
3081;SDS011;1551;51.046;7.010;2022-10-22T18:31:05;9.82;;;4.38;;
3081;SDS011;1551;51.046;7.010;2022-10-22T18:33:55;6.22;;;4.30;;
3081;SDS011;1551;51.046;7.010;2022-10-22T18:36:44;7.75;;;5.20;;
3081;SDS011;1551;51.046;7.010;2022-10-22T18:39:33;5.40;;;4.90;;
3081;SDS011;1551;51.046;7.010;2022-10-22T18:42:23;9.00;;;5.00;;
3081;SDS011;1551;51.046;7.010;2022-10-22T18:45:11;5.57;;;4.18;;
3081;SDS011;1551;51.046;7.010;2022-10-22T18:48:00;6.82;;;4.20;;
3081;SDS011;1551;51.046;7.010;2022-10-22T18:50:58;5.93;;;5.18;;
3081;SDS011;1551;51.046;7.010;2022-10-22T18:53:49;5.78;;;4.35;;
3081;SDS011;1551;51.046;7.010;2022-10-22T18:56:39;8.00;;;5.50;;
3081;SDS011;1551;51.046;7.010;2022-10-22T18:59:28;11.50;;;6.17;;
3081;SDS011;1551;51.046;7.010;2022-10-22T19:02:18;11.27;;;5.32;;
3081;SDS011;1551;51.046;7.010;2022-10-22T19:05:07;8.90;;;5.30;;
3081;SDS011;1551;51.046;7.010;2022-10-22T19:07:56;9.63;;;5.13;;
3081;SDS011;1551;51.046;7.010;2022-10-22T19:10:46;6.18;;;4.60;;
3081;SDS011;1551;51.046;7.010;2022-10-22T19:13:36;10.82;;;5.88;;
3081;SDS011;1551;51.046;7.010;2022-10-22T19:16:25;11.80;;;6.35;;
3081;SDS011;1551;51.046;7.010;2022-10-22T19:19:16;12.27;;;6.50;;
3081;SDS011;1551;51.046;7.010;2022-10-22T19:22:06;9.70;;;6.40;;
3081;SDS011;1551;51.046;7.010;2022-10-22T19:24:55;11.95;;;5.90;;